Jet Cat Express — WDA8695 — position and weather

sailwx.info

Track history (hours):
 
Tides and Currents Weather Stations Pressure Air Temp Water Temp Dewpoint Dewpoint Depression Visibility Wind Speed Wind Dir Waves Ship Positions

Jet Cat Express

Owner: CATALINA CHANNEL EXPRESS INC, LONG BEACH, CA. More information available from US FCC via Universal Licensing System and Coast Guard Vessel Documentation Center.

Last reported at 2018-Feb-24 03:30 UTC. Time now 2018-Feb-24 04:42 UTC.
Position N 33°46' W 118°12'.

Length 44 m; draft 2 m.

Type: High speed craft. MMSI: 366857070.

Date/timePositionNaut miles runAvg speedWind from/ knotsBaromVisibWave heightAir tempDewpointWater temp
2018-Feb-24 03:30N 33°46' W 118°12'10 3.9
2018-Feb-24 01:01N 33°36' W 118°13'132.2
2018-Feb-24 01:00N 33°37' W 118°12'917.7
2018-Feb-24 00:30N 33°46' W 118°12'0 0.0
2018-Feb-24 00:00N 33°46' W 118°12'0 0.0
2018-Feb-23 23:30N 33°46' W 118°12'3 6.9
2018-Feb-23 23:00N 33°43' W 118°11'8 3.4
2018-Feb-23 20:48N 33°35' W 118°12'931.8
2018-Feb-23 20:30N 33°44' W 118°11'2 3.2
2018-Feb-23 20:00N 33°46' W 118°12'0 0.0
2018-Feb-23 19:30N 33°46' W 118°12'0 0.0
2018-Feb-23 19:00N 33°46' W 118°12'0 0.0
2018-Feb-23 18:30N 33°46' W 118°12'0 0.0
2018-Feb-23 18:00N 33°46' W 118°12'0 0.0
2018-Feb-23 17:30N 33°46' W 118°12'0 0.0
2018-Feb-23 17:00N 33°46' W 118°12'0 0.0
2018-Feb-23 16:30N 33°46' W 118°12'0 0.0
2018-Feb-23 16:00N 33°46' W 118°12'0 0.0
2018-Feb-23 15:30N 33°46' W 118°12'0 0.0
2018-Feb-23 15:00N 33°46' W 118°12'0 0.0
2018-Feb-23 14:30N 33°46' W 118°12'0 0.0
2018-Feb-23 14:00N 33°46' W 118°12'0 0.0
2018-Feb-23 13:25N 33°46' W 118°12'0 0.0
2018-Feb-22 23:54N 33°46' W 118°12'0 0.0
2018-Feb-22 23:30N 33°46' W 118°12'0 0.0
2018-Feb-22 23:00N 33°46' W 118°12'0 0.0
2018-Feb-22 22:30N 33°46' W 118°12'0 0.0
2018-Feb-22 22:00N 33°46' W 118°12'0 0.0
2018-Feb-22 21:30N 33°46' W 118°12'0 0.0
2018-Feb-22 21:00N 33°46' W 118°12'0 0.0
2018-Feb-22 20:30N 33°46' W 118°12'0 0.0
2018-Feb-22 20:00N 33°46' W 118°12'0 0.0
2018-Feb-22 19:30N 33°46' W 118°12'0 0.0
2018-Feb-22 19:00N 33°46' W 118°12'0 0.0
2018-Feb-22 18:30N 33°46' W 118°12'0 0.0
2018-Feb-22 18:00N 33°46' W 118°12'0 0.0
2018-Feb-22 17:30N 33°46' W 118°12'0 0.0
2018-Feb-22 16:48N 33°46' W 118°12'0 0.0
2018-Feb-22 16:30N 33°46' W 118°12'0 0.0
2018-Feb-22 16:00N 33°46' W 118°12'0 0.0
2018-Feb-22 15:30N 33°46' W 118°12'0 0.0
2018-Feb-22 15:00N 33°46' W 118°12'0 0.0
2018-Feb-22 14:30N 33°46' W 118°12'0 0.0
2018-Feb-22 13:53N 33°46' W 118°12'0 0.0
2018-Feb-22 12:23N 33°46' W 118°12'0 0.0
2018-Feb-22 11:58N 33°46' W 118°12'0 0.0
2018-Feb-22 11:27N 33°46' W 118°12'0 0.0
2018-Feb-22 10:47N 33°46' W 118°12'0 0.0
2018-Feb-22 10:30N 33°46' W 118°12'0 0.0
2018-Feb-22 10:00N 33°46' W 118°12'0 0.0
2018-Feb-22 09:30N 33°46' W 118°12'0 0.0
2018-Feb-22 09:00N 33°46' W 118°12'0 0.0
2018-Feb-22 08:28N 33°46' W 118°12'0 0.0
2018-Feb-22 07:59N 33°46' W 118°12'0 0.0
2018-Feb-22 07:31N 33°46' W 118°12'0 0.0
2018-Feb-22 07:00N 33°46' W 118°12'0 0.0
2018-Feb-22 06:30N 33°46' W 118°12'0 0.0
2018-Feb-22 05:53N 33°46' W 118°12'0 0.0
2018-Feb-22 05:30N 33°46' W 118°12'0 0.0
2018-Feb-22 05:00N 33°46' W 118°12'0 0.0
2018-Feb-22 04:30N 33°46' W 118°12'0 0.0
2018-Feb-22 04:00N 33°46' W 118°12'0 0.0
2018-Feb-22 03:30N 33°46' W 118°12'0 0.0
2018-Feb-22 03:00N 33°46' W 118°12'0 0.0
2018-Feb-22 02:30N 33°46' W 118°12'0 0.0
2018-Feb-22 02:00N 33°46' W 118°12'0 0.0
2018-Feb-22 01:30N 33°46' W 118°12'0 0.0
2018-Feb-22 01:00N 33°46' W 118°12'0 0.0
2018-Feb-22 00:30N 33°46' W 118°12'0 0.0
2018-Feb-22 00:00N 33°46' W 118°12'0 0.0
2018-Feb-21 23:30N 33°46' W 118°12'0 0.0
2018-Feb-21 23:00N 33°46' W 118°12'0 0.0
2018-Feb-21 22:30N 33°46' W 118°12'0 0.0
2018-Feb-21 22:00N 33°46' W 118°12'0 0.0
2018-Feb-21 21:30N 33°46' W 118°12'0 0.0
2018-Feb-21 21:00N 33°46' W 118°12'0 0.0
2018-Feb-21 20:30N 33°46' W 118°12'0 0.0
2018-Feb-21 20:00N 33°46' W 118°12'0 0.0
2018-Feb-21 19:30N 33°46' W 118°12'0 0.0
2018-Feb-21 19:00N 33°46' W 118°12'0 0.0
2018-Feb-21 18:30N 33°46' W 118°12'0 0.0
2018-Feb-21 18:00N 33°46' W 118°12'0 0.0
2018-Feb-21 17:30N 33°46' W 118°12'0 0.0
2018-Feb-21 17:00N 33°46' W 118°12'0 0.0
2018-Feb-21 16:30N 33°46' W 118°12'0 0.0
2018-Feb-21 16:00N 33°46' W 118°12'0 0.0
2018-Feb-21 15:30N 33°46' W 118°12'0 0.0
2018-Feb-21 15:00N 33°46' W 118°12'0 0.0
2018-Feb-21 14:30N 33°46' W 118°12'0 0.0
2018-Feb-21 13:59N 33°46' W 118°12'0 0.0
2018-Feb-21 13:30N 33°46' W 118°12'0 0.0
2018-Feb-21 13:00N 33°46' W 118°12'0 0.0
2018-Feb-21 12:29N 33°46' W 118°12'0 0.0
2018-Feb-21 12:00N 33°46' W 118°12'0 0.0
2018-Feb-21 11:30N 33°46' W 118°12'0 0.0
2018-Feb-21 11:00N 33°46' W 118°12'0 0.0
2018-Feb-21 10:30N 33°46' W 118°12'0 0.0
2018-Feb-21 10:00N 33°46' W 118°12'0 0.0
2018-Feb-21 09:29N 33°46' W 118°12'0 0.0
2018-Feb-21 08:58N 33°46' W 118°12'0 0.0
2018-Feb-21 08:30N 33°46' W 118°12'0 0.0
2018-Feb-21 08:00N 33°46' W 118°12'0 0.0
2018-Feb-21 07:30N 33°46' W 118°12'0 0.0
2018-Feb-21 06:54N 33°46' W 118°12'0 0.0
2018-Feb-21 06:30N 33°46' W 118°12'0 0.0
2018-Feb-21 06:00N 33°46' W 118°12'0 0.0
2018-Feb-21 05:30N 33°46' W 118°12'0 0.0
2018-Feb-21 05:00N 33°46' W 118°12'0 0.0
2018-Feb-21 04:30N 33°46' W 118°12'0 0.0
2018-Feb-21 04:00N 33°46' W 118°12'0 0.0
2018-Feb-21 03:28N 33°46' W 118°12'0 0.0
2018-Feb-21 03:00N 33°46' W 118°12'0 0.0
2018-Feb-21 02:27N 33°46' W 118°12'0 0.0
2018-Feb-21 01:56N 33°46' W 118°12'0 0.0
2018-Feb-21 01:30N 33°46' W 118°12'0 0.0
2018-Feb-21 01:00N 33°46' W 118°12'0 0.0
2018-Feb-21 00:30N 33°46' W 118°12'0 0.0
2018-Feb-21 00:00N 33°46' W 118°12'0 0.0
2018-Feb-20 23:30N 33°46' W 118°12'0 0.0
2018-Feb-20 23:00N 33°46' W 118°12'0 0.0
2018-Feb-20 22:30N 33°46' W 118°12'0 0.0
2018-Feb-20 22:00N 33°46' W 118°12'0 0.0
2018-Feb-20 21:29N 33°46' W 118°12'0 0.0
2018-Feb-20 21:00N 33°46' W 118°12'0 0.0
2018-Feb-20 20:30N 33°46' W 118°12'0 0.0
2018-Feb-20 20:00N 33°46' W 118°12'0 0.0
2018-Feb-20 19:30N 33°46' W 118°12'0 0.0
2018-Feb-20 19:00N 33°46' W 118°12'0 0.0
2018-Feb-20 18:30N 33°46' W 118°12'0 0.0
2018-Feb-20 18:00N 33°46' W 118°12'0 0.0
2018-Feb-20 17:30N 33°46' W 118°12'0 0.0
2018-Feb-20 17:00N 33°46' W 118°12'0 0.0
2018-Feb-20 16:30N 33°46' W 118°12'0 0.0
2018-Feb-20 16:00N 33°46' W 118°12'0 0.0
2018-Feb-20 15:30N 33°46' W 118°12'0 0.0
2018-Feb-20 15:00N 33°46' W 118°12'0 0.0
2018-Feb-20 14:30N 33°46' W 118°12'0 0.0
2018-Feb-20 03:33N 33°46' W 118°12'0 3.7
2018-Feb-20 03:30N 33°46' W 118°12'11 5.0
2018-Feb-20 01:12N 33°34' W 118°13'526.3
2018-Feb-20 01:01N 33°39' W 118°12'713.2
2018-Feb-20 00:30N 33°46' W 118°12'0 0.0
2018-Feb-20 00:00N 33°46' W 118°12'0 0.0
2018-Feb-19 23:30N 33°46' W 118°12'815.4
2018-Feb-19 23:01N 33°38' W 118°12'2 0.7
2018-Feb-19 20:44N 33°36' W 118°13'629.3
2018-Feb-19 20:30N 33°43' W 118°11'3 6.1
2018-Feb-19 20:00N 33°46' W 118°12'0 0.0
2018-Feb-19 19:30N 33°46' W 118°12'612.1
2018-Feb-19 19:00N 33°40' W 118°12'7 3.2
2018-Feb-19 16:51N 33°34' W 118°15'1028.2
2018-Feb-19 16:30N 33°43' W 118°11'3 6.0
2018-Feb-19 16:00N 33°46' W 118°12'0 0.0
2018-Feb-19 15:30N 33°46' W 118°12'0 0.0
2018-Feb-19 15:00N 33°46' W 118°12'0 0.0
2018-Feb-19 14:30N 33°46' W 118°12'0 0.0
2018-Feb-19 14:00N 33°46' W 118°12'0 0.0
2018-Feb-19 13:30N 33°46' W 118°12'1 0.1
2018-Feb-19 03:11N 33°45' W 118°11'11 5.1
2018-Feb-19 01:01N 33°35' W 118°14'131.1
2018-Feb-19 01:00N 33°35' W 118°14'1121.6
2018-Feb-19 00:30N 33°46' W 118°12'0 0.1
2018-Feb-19 00:00N 33°46' W 118°12'0 0.0
2018-Feb-18 23:30N 33°46' W 118°12'510.5
2018-Feb-18 23:00N 33°41' W 118°11'6 2.9
2018-Feb-18 20:49N 33°35' W 118°14'1030.6
2018-Feb-18 20:30N 33°44' W 118°11'2 3.9
2018-Feb-18 20:00N 33°46' W 118°12'0 0.0
2018-Feb-18 19:30N 33°46' W 118°12'3 6.4
2018-Feb-18 19:01N 33°43' W 118°11'8 3.8
2018-Feb-18 16:52N 33°35' W 118°14'1027.3
2018-Feb-18 16:30N 33°45' W 118°11'1 2.6
2018-Feb-18 16:00N 33°46' W 118°12'0 0.0
2018-Feb-18 15:30N 33°46' W 118°12'0 0.0
2018-Feb-18 15:00N 33°46' W 118°12'0 0.0
2018-Feb-18 14:30N 33°46' W 118°12'0 0.0
2018-Feb-18 13:57N 33°46' W 118°12'0 0.0
2018-Feb-18 13:29N 33°46' W 118°12'0 0.0
2018-Feb-18 12:57N 33°46' W 118°12'0 0.0
2018-Feb-18 12:30N 33°46' W 118°12'0 0.0
2018-Feb-18 12:00N 33°46' W 118°12'0 0.0
2018-Feb-18 11:30N 33°46' W 118°12'0 0.0
2018-Feb-18 11:00N 33°46' W 118°12'0 0.0
2018-Feb-18 10:24N 33°46' W 118°12'0 0.0
2018-Feb-18 10:00N 33°46' W 118°12'0 0.0
2018-Feb-18 09:28N 33°46' W 118°12'0 0.0
2018-Feb-18 08:58N 33°46' W 118°12'0 0.0
2018-Feb-18 08:30N 33°46' W 118°12'0 0.0
2018-Feb-18 08:00N 33°46' W 118°12'0 0.0
2018-Feb-18 07:30N 33°46' W 118°12'0 0.0
2018-Feb-18 07:00N 33°46' W 118°12'0 0.0
2018-Feb-18 06:30N 33°46' W 118°12'0 0.0
2018-Feb-18 06:00N 33°46' W 118°12'0 0.0
2018-Feb-18 05:29N 33°46' W 118°12'0 0.0
2018-Feb-18 05:00N 33°46' W 118°12'0 0.0
2018-Feb-18 04:28N 33°46' W 118°12'0 0.0
2018-Feb-18 04:00N 33°46' W 118°12'0 0.4
2018-Feb-18 03:28N 33°46' W 118°12'919.2
2018-Feb-18 03:00N 33°37' W 118°13'1712.8
2018-Feb-18 01:41N 33°21' W 118°19'421.1
2018-Feb-18 01:29N 33°25' W 118°18'1430.3
2018-Feb-18 01:01N 33°39' W 118°13'714.3
2018-Feb-18 00:30N 33°46' W 118°12'0 0.0
2018-Feb-18 00:00N 33°46' W 118°12'0 0.0
2018-Feb-17 23:30N 33°46' W 118°12'5 9.1
2018-Feb-17 23:01N 33°41' W 118°11'11 5.4
2018-Feb-17 21:01N 33°31' W 118°15'130.6
2018-Feb-17 20:58N 33°33' W 118°15'1327.0
2018-Feb-17 20:30N 33°45' W 118°11'1 3.0
2018-Feb-17 20:00N 33°46' W 118°12'0 0.0
2018-Feb-17 19:30N 33°46' W 118°12'2 4.5
2018-Feb-17 19:01N 33°44' W 118°11'1629.7
2018-Feb-17 18:29N 33°29' W 118°15'2 1.5
2018-Feb-17 17:05N 33°31' W 118°14'331.0
2018-Feb-17 16:58N 33°34' W 118°13'1224.9
2018-Feb-17 16:30N 33°45' W 118°11'1 1.7
2018-Feb-17 16:00N 33°46' W 118°12'0 0.0
2018-Feb-17 15:30N 33°46' W 118°12'0 0.0
2018-Feb-17 15:00N 33°46' W 118°12'0 0.0
2018-Feb-17 14:30N 33°46' W 118°12'1 0.1
2018-Feb-17 05:29N 33°45' W 118°11'19 9.1
2018-Feb-17 03:25N 33°27' W 118°16'1229.2
2018-Feb-17 03:00N 33°39' W 118°12'714.0
2018-Feb-17 02:30N 33°46' W 118°12'0 0.0
2018-Feb-17 02:00N 33°46' W 118°12'0 0.0
2018-Feb-17 01:30N 33°46' W 118°12'0 0.0
2018-Feb-17 01:00N 33°46' W 118°12'918.8
2018-Feb-17 00:30N 33°36' W 118°12'3 1.6
2018-Feb-16 22:41N 33°34' W 118°14'530.2
2018-Feb-16 22:30N 33°39' W 118°12'713.2
2018-Feb-16 22:01N 33°46' W 118°12'0 0.0
2018-Feb-16 21:30N 33°46' W 118°12'0 0.0
2018-Feb-16 21:00N 33°46' W 118°12'713.4
2018-Feb-16 20:30N 33°39' W 118°12'2 1.1
2018-Feb-16 18:21N 33°37' W 118°13'925.1
2018-Feb-16 18:00N 33°45' W 118°11'1 1.1
2018-Feb-16 17:30N 33°46' W 118°12'0 0.0
2018-Feb-16 17:00N 33°46' W 118°12'5 9.4
2018-Feb-16 16:30N 33°41' W 118°11'8 4.3
2018-Feb-16 14:35N 33°33' W 118°14'230.2
2018-Feb-16 14:30N 33°35' W 118°13'1019.7
2018-Feb-16 13:59N 33°46' W 118°12'0 0.0
2018-Feb-16 13:30N 33°46' W 118°12'0 0.0
2018-Feb-16 13:00N 33°46' W 118°12'0 0.0
2018-Feb-16 12:31N 33°46' W 118°12'0 0.0
2018-Feb-16 06:50N 33°46' W 118°12'0 0.0
2018-Feb-16 05:47N 33°46' W 118°12'0 0.0
2018-Feb-16 05:27N 33°46' W 118°12'0 0.0
2018-Feb-16 04:44N 33°46' W 118°12'0 0.0
2018-Feb-16 04:31N 33°46' W 118°12'0 0.0
2018-Feb-16 02:25N 33°46' W 118°12'0 0.0
2018-Feb-16 01:56N 33°46' W 118°12'0 0.0
2018-Feb-16 01:31N 33°46' W 118°12'0 0.0
2018-Feb-16 01:01N 33°46' W 118°12'0 0.0
2018-Feb-16 00:31N 33°46' W 118°12'0 0.0
2018-Feb-16 00:00N 33°46' W 118°12'0 0.0
2018-Feb-15 23:31N 33°46' W 118°12'0 0.0
2018-Feb-15 23:01N 33°46' W 118°12'0 0.0
2018-Feb-15 22:30N 33°46' W 118°12'0 0.0
2018-Feb-15 22:00N 33°46' W 118°12'0 0.0
2018-Feb-15 21:30N 33°46' W 118°12'0 0.0
2018-Feb-15 21:01N 33°46' W 118°12'0 0.0
2018-Feb-15 20:30N 33°46' W 118°12'0 0.0
2018-Feb-15 20:01N 33°46' W 118°12'0 0.0
2018-Feb-15 19:30N 33°46' W 118°12'0 0.0
2018-Feb-15 19:01N 33°46' W 118°12'0 0.0
2018-Feb-15 18:31N 33°46' W 118°12'0 0.0
2018-Feb-15 18:00N 33°46' W 118°12'0 0.0
2018-Feb-15 17:31N 33°46' W 118°12'0 0.0
2018-Feb-15 17:00N 33°46' W 118°12'0 0.0
2018-Feb-15 16:30N 33°46' W 118°12'0 0.0
2018-Feb-15 16:01N 33°46' W 118°12'0 0.0
2018-Feb-15 15:31N 33°46' W 118°12'0 0.0
2018-Feb-15 15:01N 33°46' W 118°12'0 0.0
2018-Feb-15 14:30N 33°46' W 118°12'0 0.0
2018-Feb-15 14:00N 33°46' W 118°12'0 0.0
2018-Feb-15 13:31N 33°46' W 118°12'0 0.0
2018-Feb-15 13:01N 33°46' W 118°12'0 0.0
2018-Feb-15 12:31N 33°46' W 118°12'0 0.0
2018-Feb-15 12:00N 33°46' W 118°12'0 0.0
2018-Feb-15 11:31N 33°46' W 118°12'0 0.0
2018-Feb-15 11:01N 33°46' W 118°12'0 0.0
2018-Feb-15 10:31N 33°46' W 118°12'0 0.0
2018-Feb-15 10:00N 33°46' W 118°12'0 0.0
2018-Feb-15 09:31N 33°46' W 118°12'0 0.0
2018-Feb-15 09:01N 33°46' W 118°12'0 0.0
2018-Feb-15 08:30N 33°46' W 118°12'0 0.0
2018-Feb-15 08:01N 33°46' W 118°12'0 0.0
2018-Feb-15 07:30N 33°46' W 118°12'0 0.0
2018-Feb-15 06:40N 33°46' W 118°12'0 0.0
2018-Feb-15 06:24N 33°46' W 118°12'0 0.0
2018-Feb-15 05:56N 33°46' W 118°12'0 0.0
2018-Feb-15 05:27N 33°46' W 118°12'0 0.0
2018-Feb-15 04:52N 33°46' W 118°12'0 0.0
2018-Feb-15 04:29N 33°46' W 118°12'0 0.0
2018-Feb-15 03:54N 33°46' W 118°12'0 0.0
2018-Feb-15 03:30N 33°46' W 118°12'0 0.0
2018-Feb-15 02:57N 33°46' W 118°12'0 0.0
2018-Feb-15 02:29N 33°46' W 118°12'0 0.0
2018-Feb-15 02:00N 33°46' W 118°12'0 0.0
2018-Feb-15 01:31N 33°46' W 118°12'0 0.0
2018-Feb-15 01:00N 33°46' W 118°12'0 0.0
2018-Feb-15 00:31N 33°46' W 118°12'0 0.0
2018-Feb-15 00:01N 33°46' W 118°12'0 0.0
2018-Feb-14 23:31N 33°46' W 118°12'0 0.0
2018-Feb-14 23:01N 33°46' W 118°12'0 0.0
2018-Feb-14 22:31N 33°46' W 118°12'0 0.0
2018-Feb-14 22:01N 33°46' W 118°12'0 0.0
2018-Feb-14 21:31N 33°46' W 118°12'815.5
2018-Feb-14 21:00N 33°38' W 118°11'714.3
2018-Feb-14 20:30N 33°45' W 118°09'2 4.0
2018-Feb-14 20:01N 33°45' W 118°12'0 0.0
2018-Feb-14 19:31N 33°45' W 118°12'  
Track history (hours):
 
Tides and Currents Weather Stations Pressure Air Temp Water Temp Dewpoint Dewpoint Depression Visibility Wind Speed Wind Dir Waves Ship Positions

Jet Cat Express

Owner: CATALINA CHANNEL EXPRESS INC, LONG BEACH, CA. More information available from US FCC via Universal Licensing System and Coast Guard Vessel Documentation Center.

Last reported at 2018-Feb-24 03:30 UTC. Time now 2018-Feb-24 04:42 UTC.
Position N 33°46' W 118°12'.

Length 44 m; draft 2 m.

Type: High speed craft. MMSI: 366857070.

Date/timePositionNaut miles runAvg speedWind from/ knotsBaromVisibWave heightAir tempDewpointWater temp
2018-Feb-24 03:30N 33°46' W 118°12'10 3.9
2018-Feb-24 01:01N 33°36' W 118°13'132.2
2018-Feb-24 01:00N 33°37' W 118°12'917.7
2018-Feb-24 00:30N 33°46' W 118°12'0 0.0
2018-Feb-24 00:00N 33°46' W 118°12'0 0.0
2018-Feb-23 23:30N 33°46' W 118°12'3 6.9
2018-Feb-23 23:00N 33°43' W 118°11'8 3.4
2018-Feb-23 20:48N 33°35' W 118°12'931.8
2018-Feb-23 20:30N 33°44' W 118°11'2 3.2
2018-Feb-23 20:00N 33°46' W 118°12'0 0.0
2018-Feb-23 19:30N 33°46' W 118°12'0 0.0
2018-Feb-23 19:00N 33°46' W 118°12'0 0.0
2018-Feb-23 18:30N 33°46' W 118°12'0 0.0
2018-Feb-23 18:00N 33°46' W 118°12'0 0.0
2018-Feb-23 17:30N 33°46' W 118°12'0 0.0
2018-Feb-23 17:00N 33°46' W 118°12'0 0.0
2018-Feb-23 16:30N 33°46' W 118°12'0 0.0
2018-Feb-23 16:00N 33°46' W 118°12'0 0.0
2018-Feb-23 15:30N 33°46' W 118°12'0 0.0
2018-Feb-23 15:00N 33°46' W 118°12'0 0.0
2018-Feb-23 14:30N 33°46' W 118°12'0 0.0
2018-Feb-23 14:00N 33°46' W 118°12'0 0.0
2018-Feb-23 13:25N 33°46' W 118°12'0 0.0
2018-Feb-22 23:54N 33°46' W 118°12'0 0.0
2018-Feb-22 23:30N 33°46' W 118°12'0 0.0
2018-Feb-22 23:00N 33°46' W 118°12'0 0.0
2018-Feb-22 22:30N 33°46' W 118°12'0 0.0
2018-Feb-22 22:00N 33°46' W 118°12'0 0.0
2018-Feb-22 21:30N 33°46' W 118°12'0 0.0
2018-Feb-22 21:00N 33°46' W 118°12'0 0.0
2018-Feb-22 20:30N 33°46' W 118°12'0 0.0
2018-Feb-22 20:00N 33°46' W 118°12'0 0.0
2018-Feb-22 19:30N 33°46' W 118°12'0 0.0
2018-Feb-22 19:00N 33°46' W 118°12'0 0.0
2018-Feb-22 18:30N 33°46' W 118°12'0 0.0
2018-Feb-22 18:00N 33°46' W 118°12'0 0.0
2018-Feb-22 17:30N 33°46' W 118°12'0 0.0
2018-Feb-22 16:48N 33°46' W 118°12'0 0.0
2018-Feb-22 16:30N 33°46' W 118°12'0 0.0
2018-Feb-22 16:00N 33°46' W 118°12'0 0.0
2018-Feb-22 15:30N 33°46' W 118°12'0 0.0
2018-Feb-22 15:00N 33°46' W 118°12'0 0.0
2018-Feb-22 14:30N 33°46' W 118°12'0 0.0
2018-Feb-22 13:53N 33°46' W 118°12'0 0.0
2018-Feb-22 12:23N 33°46' W 118°12'0 0.0
2018-Feb-22 11:58N 33°46' W 118°12'0 0.0
2018-Feb-22 11:27N 33°46' W 118°12'0 0.0
2018-Feb-22 10:47N 33°46' W 118°12'0 0.0
2018-Feb-22 10:30N 33°46' W 118°12'0 0.0
2018-Feb-22 10:00N 33°46' W 118°12'0 0.0
2018-Feb-22 09:30N 33°46' W 118°12'0 0.0
2018-Feb-22 09:00N 33°46' W 118°12'0 0.0
2018-Feb-22 08:28N 33°46' W 118°12'0 0.0
2018-Feb-22 07:59N 33°46' W 118°12'0 0.0
2018-Feb-22 07:31N 33°46' W 118°12'0 0.0
2018-Feb-22 07:00N 33°46' W 118°12'0 0.0
2018-Feb-22 06:30N 33°46' W 118°12'0 0.0
2018-Feb-22 05:53N 33°46' W 118°12'0 0.0
2018-Feb-22 05:30N 33°46' W 118°12'0 0.0
2018-Feb-22 05:00N 33°46' W 118°12'0 0.0
2018-Feb-22 04:30N 33°46' W 118°12'0 0.0
2018-Feb-22 04:00N 33°46' W 118°12'0 0.0
2018-Feb-22 03:30N 33°46' W 118°12'0 0.0
2018-Feb-22 03:00N 33°46' W 118°12'0 0.0
2018-Feb-22 02:30N 33°46' W 118°12'0 0.0
2018-Feb-22 02:00N 33°46' W 118°12'0 0.0
2018-Feb-22 01:30N 33°46' W 118°12'0 0.0
2018-Feb-22 01:00N 33°46' W 118°12'0 0.0
2018-Feb-22 00:30N 33°46' W 118°12'0 0.0
2018-Feb-22 00:00N 33°46' W 118°12'0 0.0
2018-Feb-21 23:30N 33°46' W 118°12'0 0.0
2018-Feb-21 23:00N 33°46' W 118°12'0 0.0
2018-Feb-21 22:30N 33°46' W 118°12'0 0.0
2018-Feb-21 22:00N 33°46' W 118°12'0 0.0
2018-Feb-21 21:30N 33°46' W 118°12'0 0.0
2018-Feb-21 21:00N 33°46' W 118°12'0 0.0
2018-Feb-21 20:30N 33°46' W 118°12'0 0.0
2018-Feb-21 20:00N 33°46' W 118°12'0 0.0
2018-Feb-21 19:30N 33°46' W 118°12'0 0.0
2018-Feb-21 19:00N 33°46' W 118°12'0 0.0
2018-Feb-21 18:30N 33°46' W 118°12'0 0.0
2018-Feb-21 18:00N 33°46' W 118°12'0 0.0
2018-Feb-21 17:30N 33°46' W 118°12'0 0.0
2018-Feb-21 17:00N 33°46' W 118°12'0 0.0
2018-Feb-21 16:30N 33°46' W 118°12'0 0.0
2018-Feb-21 16:00N 33°46' W 118°12'0 0.0
2018-Feb-21 15:30N 33°46' W 118°12'0 0.0
2018-Feb-21 15:00N 33°46' W 118°12'0 0.0
2018-Feb-21 14:30N 33°46' W 118°12'0 0.0
2018-Feb-21 13:59N 33°46' W 118°12'0 0.0
2018-Feb-21 13:30N 33°46' W 118°12'0 0.0
2018-Feb-21 13:00N 33°46' W 118°12'0 0.0
2018-Feb-21 12:29N 33°46' W 118°12'0 0.0
2018-Feb-21 12:00N 33°46' W 118°12'0 0.0
2018-Feb-21 11:30N 33°46' W 118°12'0 0.0
2018-Feb-21 11:00N 33°46' W 118°12'0 0.0
2018-Feb-21 10:30N 33°46' W 118°12'0 0.0
2018-Feb-21 10:00N 33°46' W 118°12'0 0.0
2018-Feb-21 09:29N 33°46' W 118°12'0 0.0
2018-Feb-21 08:58N 33°46' W 118°12'0 0.0
2018-Feb-21 08:30N 33°46' W 118°12'0 0.0
2018-Feb-21 08:00N 33°46' W 118°12'0 0.0
2018-Feb-21 07:30N 33°46' W 118°12'0 0.0
2018-Feb-21 06:54N 33°46' W 118°12'0 0.0
2018-Feb-21 06:30N 33°46' W 118°12'0 0.0
2018-Feb-21 06:00N 33°46' W 118°12'0 0.0
2018-Feb-21 05:30N 33°46' W 118°12'0 0.0
2018-Feb-21 05:00N 33°46' W 118°12'0 0.0
2018-Feb-21 04:30N 33°46' W 118°12'0 0.0
2018-Feb-21 04:00N 33°46' W 118°12'0 0.0
2018-Feb-21 03:28N 33°46' W 118°12'0 0.0
2018-Feb-21 03:00N 33°46' W 118°12'0 0.0
2018-Feb-21 02:27N 33°46' W 118°12'0 0.0
2018-Feb-21 01:56N 33°46' W 118°12'0 0.0
2018-Feb-21 01:30N 33°46' W 118°12'0 0.0
2018-Feb-21 01:00N 33°46' W 118°12'0 0.0
2018-Feb-21 00:30N 33°46' W 118°12'0 0.0
2018-Feb-21 00:00N 33°46' W 118°12'0 0.0
2018-Feb-20 23:30N 33°46' W 118°12'0 0.0
2018-Feb-20 23:00N 33°46' W 118°12'0 0.0
2018-Feb-20 22:30N 33°46' W 118°12'0 0.0
2018-Feb-20 22:00N 33°46' W 118°12'0 0.0
2018-Feb-20 21:29N 33°46' W 118°12'0 0.0
2018-Feb-20 21:00N 33°46' W 118°12'0 0.0
2018-Feb-20 20:30N 33°46' W 118°12'0 0.0
2018-Feb-20 20:00N 33°46' W 118°12'0 0.0
2018-Feb-20 19:30N 33°46' W 118°12'0 0.0
2018-Feb-20 19:00N 33°46' W 118°12'0 0.0
2018-Feb-20 18:30N 33°46' W 118°12'0 0.0
2018-Feb-20 18:00N 33°46' W 118°12'0 0.0
2018-Feb-20 17:30N 33°46' W 118°12'0 0.0
2018-Feb-20 17:00N 33°46' W 118°12'0 0.0
2018-Feb-20 16:30N 33°46' W 118°12'0 0.0
2018-Feb-20 16:00N 33°46' W 118°12'0 0.0
2018-Feb-20 15:30N 33°46' W 118°12'0 0.0
2018-Feb-20 15:00N 33°46' W 118°12'0 0.0
2018-Feb-20 14:30N 33°46' W 118°12'0 0.0
2018-Feb-20 03:33N 33°46' W 118°12'0 3.7
2018-Feb-20 03:30N 33°46' W 118°12'11 5.0
2018-Feb-20 01:12N 33°34' W 118°13'526.3
2018-Feb-20 01:01N 33°39' W 118°12'713.2
2018-Feb-20 00:30N 33°46' W 118°12'0 0.0
2018-Feb-20 00:00N 33°46' W 118°12'0 0.0
2018-Feb-19 23:30N 33°46' W 118°12'815.4
2018-Feb-19 23:01N 33°38' W 118°12'2 0.7
2018-Feb-19 20:44N 33°36' W 118°13'629.3
2018-Feb-19 20:30N 33°43' W 118°11'3 6.1
2018-Feb-19 20:00N 33°46' W 118°12'0 0.0
2018-Feb-19 19:30N 33°46' W 118°12'612.1
2018-Feb-19 19:00N 33°40' W 118°12'7 3.2
2018-Feb-19 16:51N 33°34' W 118°15'1028.2
2018-Feb-19 16:30N 33°43' W 118°11'3 6.0
2018-Feb-19 16:00N 33°46' W 118°12'0 0.0
2018-Feb-19 15:30N 33°46' W 118°12'0 0.0
2018-Feb-19 15:00N 33°46' W 118°12'0 0.0
2018-Feb-19 14:30N 33°46' W 118°12'0 0.0
2018-Feb-19 14:00N 33°46' W 118°12'0 0.0
2018-Feb-19 13:30N 33°46' W 118°12'1 0.1
2018-Feb-19 03:11N 33°45' W 118°11'11 5.1
2018-Feb-19 01:01N 33°35' W 118°14'131.1
2018-Feb-19 01:00N 33°35' W 118°14'1121.6
2018-Feb-19 00:30N 33°46' W 118°12'0 0.1
2018-Feb-19 00:00N 33°46' W 118°12'0 0.0
2018-Feb-18 23:30N 33°46' W 118°12'510.5
2018-Feb-18 23:00N 33°41' W 118°11'6 2.9
2018-Feb-18 20:49N 33°35' W 118°14'1030.6
2018-Feb-18 20:30N 33°44' W 118°11'2 3.9
2018-Feb-18 20:00N 33°46' W 118°12'0 0.0
2018-Feb-18 19:30N 33°46' W 118°12'3 6.4
2018-Feb-18 19:01N 33°43' W 118°11'8 3.8
2018-Feb-18 16:52N 33°35' W 118°14'1027.3
2018-Feb-18 16:30N 33°45' W 118°11'1 2.6
2018-Feb-18 16:00N 33°46' W 118°12'0 0.0
2018-Feb-18 15:30N 33°46' W 118°12'0 0.0
2018-Feb-18 15:00N 33°46' W 118°12'0 0.0
2018-Feb-18 14:30N 33°46' W 118°12'0 0.0
2018-Feb-18 13:57N 33°46' W 118°12'0 0.0
2018-Feb-18 13:29N 33°46' W 118°12'0 0.0
2018-Feb-18 12:57N 33°46' W 118°12'0 0.0
2018-Feb-18 12:30N 33°46' W 118°12'0 0.0
2018-Feb-18 12:00N 33°46' W 118°12'0 0.0
2018-Feb-18 11:30N 33°46' W 118°12'0 0.0
2018-Feb-18 11:00N 33°46' W 118°12'0 0.0
2018-Feb-18 10:24N 33°46' W 118°12'0 0.0
2018-Feb-18 10:00N 33°46' W 118°12'0 0.0
2018-Feb-18 09:28N 33°46' W 118°12'0 0.0
2018-Feb-18 08:58N 33°46' W 118°12'0 0.0
2018-Feb-18 08:30N 33°46' W 118°12'0 0.0
2018-Feb-18 08:00N 33°46' W 118°12'0 0.0
2018-Feb-18 07:30N 33°46' W 118°12'0 0.0
2018-Feb-18 07:00N 33°46' W 118°12'0 0.0
2018-Feb-18 06:30N 33°46' W 118°12'0 0.0
2018-Feb-18 06:00N 33°46' W 118°12'0 0.0
2018-Feb-18 05:29N 33°46' W 118°12'0 0.0
2018-Feb-18 05:00N 33°46' W 118°12'0 0.0
2018-Feb-18 04:28N 33°46' W 118°12'0 0.0
2018-Feb-18 04:00N 33°46' W 118°12'0 0.4
2018-Feb-18 03:28N 33°46' W 118°12'919.2
2018-Feb-18 03:00N 33°37' W 118°13'1712.8
2018-Feb-18 01:41N 33°21' W 118°19'421.1
2018-Feb-18 01:29N 33°25' W 118°18'1430.3
2018-Feb-18 01:01N 33°39' W 118°13'714.3
2018-Feb-18 00:30N 33°46' W 118°12'0 0.0
2018-Feb-18 00:00N 33°46' W 118°12'0 0.0
2018-Feb-17 23:30N 33°46' W 118°12'5 9.1
2018-Feb-17 23:01N 33°41' W 118°11'11 5.4
2018-Feb-17 21:01N 33°31' W 118°15'130.6
2018-Feb-17 20:58N 33°33' W 118°15'1327.0
2018-Feb-17 20:30N 33°45' W 118°11'1 3.0
2018-Feb-17 20:00N 33°46' W 118°12'0 0.0
2018-Feb-17 19:30N 33°46' W 118°12'2 4.5
2018-Feb-17 19:01N 33°44' W 118°11'1629.7
2018-Feb-17 18:29N 33°29' W 118°15'2 1.5
2018-Feb-17 17:05N 33°31' W 118°14'331.0
2018-Feb-17 16:58N 33°34' W 118°13'1224.9
2018-Feb-17 16:30N 33°45' W 118°11'1 1.7
2018-Feb-17 16:00N 33°46' W 118°12'0 0.0
2018-Feb-17 15:30N 33°46' W 118°12'0 0.0
2018-Feb-17 15:00N 33°46' W 118°12'0 0.0
2018-Feb-17 14:30N 33°46' W 118°12'1 0.1
2018-Feb-17 05:29N 33°45' W 118°11'19 9.1
2018-Feb-17 03:25N 33°27' W 118°16'1229.2
2018-Feb-17 03:00N 33°39' W 118°12'714.0
2018-Feb-17 02:30N 33°46' W 118°12'0 0.0
2018-Feb-17 02:00N 33°46' W 118°12'0 0.0
2018-Feb-17 01:30N 33°46' W 118°12'0 0.0
2018-Feb-17 01:00N 33°46' W 118°12'918.8
2018-Feb-17 00:30N 33°36' W 118°12'3 1.6
2018-Feb-16 22:41N 33°34' W 118°14'530.2
2018-Feb-16 22:30N 33°39' W 118°12'713.2
2018-Feb-16 22:01N 33°46' W 118°12'0 0.0
2018-Feb-16 21:30N 33°46' W 118°12'0 0.0
2018-Feb-16 21:00N 33°46' W 118°12'713.4
2018-Feb-16 20:30N 33°39' W 118°12'2 1.1
2018-Feb-16 18:21N 33°37' W 118°13'925.1
2018-Feb-16 18:00N 33°45' W 118°11'1 1.1
2018-Feb-16 17:30N 33°46' W 118°12'0 0.0
2018-Feb-16 17:00N 33°46' W 118°12'5 9.4
2018-Feb-16 16:30N 33°41' W 118°11'8 4.3
2018-Feb-16 14:35N 33°33' W 118°14'230.2
2018-Feb-16 14:30N 33°35' W 118°13'1019.7
2018-Feb-16 13:59N 33°46' W 118°12'0 0.0
2018-Feb-16 13:30N 33°46' W 118°12'0 0.0
2018-Feb-16 13:00N 33°46' W 118°12'0 0.0
2018-Feb-16 12:31N 33°46' W 118°12'0 0.0
2018-Feb-16 06:50N 33°46' W 118°12'0 0.0
2018-Feb-16 05:47N 33°46' W 118°12'0 0.0
2018-Feb-16 05:27N 33°46' W 118°12'0 0.0
2018-Feb-16 04:44N 33°46' W 118°12'0 0.0
2018-Feb-16 04:31N 33°46' W 118°12'0 0.0
2018-Feb-16 02:25N 33°46' W 118°12'0 0.0
2018-Feb-16 01:56N 33°46' W 118°12'0 0.0
2018-Feb-16 01:31N 33°46' W 118°12'0 0.0
2018-Feb-16 01:01N 33°46' W 118°12'0 0.0
2018-Feb-16 00:31N 33°46' W 118°12'0 0.0
2018-Feb-16 00:00N 33°46' W 118°12'0 0.0
2018-Feb-15 23:31N 33°46' W 118°12'0 0.0
2018-Feb-15 23:01N 33°46' W 118°12'0 0.0
2018-Feb-15 22:30N 33°46' W 118°12'0 0.0
2018-Feb-15 22:00N 33°46' W 118°12'0 0.0
2018-Feb-15 21:30N 33°46' W 118°12'0 0.0
2018-Feb-15 21:01N 33°46' W 118°12'0 0.0
2018-Feb-15 20:30N 33°46' W 118°12'0 0.0
2018-Feb-15 20:01N 33°46' W 118°12'0 0.0
2018-Feb-15 19:30N 33°46' W 118°12'0 0.0
2018-Feb-15 19:01N 33°46' W 118°12'0 0.0
2018-Feb-15 18:31N 33°46' W 118°12'0 0.0
2018-Feb-15 18:00N 33°46' W 118°12'0 0.0
2018-Feb-15 17:31N 33°46' W 118°12'0 0.0
2018-Feb-15 17:00N 33°46' W 118°12'0 0.0
2018-Feb-15 16:30N 33°46' W 118°12'0 0.0
2018-Feb-15 16:01N 33°46' W 118°12'0 0.0
2018-Feb-15 15:31N 33°46' W 118°12'0 0.0
2018-Feb-15 15:01N 33°46' W 118°12'0 0.0
2018-Feb-15 14:30N 33°46' W 118°12'0 0.0
2018-Feb-15 14:00N 33°46' W 118°12'0 0.0
2018-Feb-15 13:31N 33°46' W 118°12'0 0.0
2018-Feb-15 13:01N 33°46' W 118°12'0 0.0
2018-Feb-15 12:31N 33°46' W 118°12'0 0.0
2018-Feb-15 12:00N 33°46' W 118°12'0 0.0
2018-Feb-15 11:31N 33°46' W 118°12'0 0.0
2018-Feb-15 11:01N 33°46' W 118°12'0 0.0
2018-Feb-15 10:31N 33°46' W 118°12'0 0.0
2018-Feb-15 10:00N 33°46' W 118°12'0 0.0
2018-Feb-15 09:31N 33°46' W 118°12'0 0.0
2018-Feb-15 09:01N 33°46' W 118°12'0 0.0
2018-Feb-15 08:30N 33°46' W 118°12'0 0.0
2018-Feb-15 08:01N 33°46' W 118°12'0 0.0
2018-Feb-15 07:30N 33°46' W 118°12'0 0.0
2018-Feb-15 06:40N 33°46' W 118°12'0 0.0
2018-Feb-15 06:24N 33°46' W 118°12'0 0.0
2018-Feb-15 05:56N 33°46' W 118°12'0 0.0
2018-Feb-15 05:27N 33°46' W 118°12'0 0.0
2018-Feb-15 04:52N 33°46' W 118°12'0 0.0
2018-Feb-15 04:29N 33°46' W 118°12'0 0.0
2018-Feb-15 03:54N 33°46' W 118°12'0 0.0
2018-Feb-15 03:30N 33°46' W 118°12'0 0.0
2018-Feb-15 02:57N 33°46' W 118°12'0 0.0
2018-Feb-15 02:29N 33°46' W 118°12'0 0.0
2018-Feb-15 02:00N 33°46' W 118°12'0 0.0
2018-Feb-15 01:31N 33°46' W 118°12'0 0.0
2018-Feb-15 01:00N 33°46' W 118°12'0 0.0
2018-Feb-15 00:31N 33°46' W 118°12'0 0.0
2018-Feb-15 00:01N 33°46' W 118°12'0 0.0
2018-Feb-14 23:31N 33°46' W 118°12'0 0.0
2018-Feb-14 23:01N 33°46' W 118°12'0 0.0
2018-Feb-14 22:31N 33°46' W 118°12'0 0.0
2018-Feb-14 22:01N 33°46' W 118°12'0 0.0
2018-Feb-14 21:31N 33°46' W 118°12'815.5
2018-Feb-14 21:00N 33°38' W 118°11'714.3
2018-Feb-14 20:30N 33°45' W 118°09'2 4.0
2018-Feb-14 20:01N 33°45' W 118°12'0 0.0
2018-Feb-14 19:31N 33°45' W 118°12'  

Dump ship's entire track history